sensor_id;sensor_type;location;lat;lon;timestamp;temperature;humidity
24232;DHT22;12364;47.810;8.810;2022-10-16T04:30:43;16.60;99.90
24232;DHT22;12364;47.810;8.810;2022-10-16T04:33:10;16.60;99.90
24232;DHT22;12364;47.810;8.810;2022-10-16T04:35:37;16.60;99.90
24232;DHT22;12364;47.810;8.810;2022-10-16T04:38:04;16.60;99.90
24232;DHT22;12364;47.810;8.810;2022-10-16T04:40:31;16.60;99.90
24232;DHT22;12364;47.810;8.810;2022-10-16T04:42:59;16.60;99.90
24232;DHT22;12364;47.810;8.810;2022-10-16T04:45:26;16.60;99.90
24232;DHT22;12364;47.810;8.810;2022-10-16T04:47:56;16.60;99.90
24232;DHT22;12364;47.810;8.810;2022-10-16T04:50:23;16.60;99.90
24232;DHT22;12364;47.810;8.810;2022-10-16T04:52:50;16.70;99.90
24232;DHT22;12364;47.810;8.810;2022-10-16T04:55:17;16.60;99.90
24232;DHT22;12364;47.810;8.810;2022-10-16T04:57:44;16.60;99.90
24232;DHT22;12364;47.810;8.810;2022-10-16T05:00:11;16.60;99.90
24232;DHT22;12364;47.810;8.810;2022-10-16T05:02:38;16.50;99.90
24232;DHT22;12364;47.810;8.810;2022-10-16T05:05:05;16.50;99.90
24232;DHT22;12364;47.810;8.810;2022-10-16T05:07:32;16.50;99.90
24232;DHT22;12364;47.810;8.810;2022-10-16T05:09:59;16.50;99.90
24232;DHT22;12364;47.810;8.810;2022-10-16T05:12:26;16.60;99.90
24232;DHT22;12364;47.810;8.810;2022-10-16T05:14:53;16.60;99.90
24232;DHT22;12364;47.810;8.810;2022-10-16T05:17:25;16.60;99.90
24232;DHT22;12364;47.810;8.810;2022-10-16T05:19:53;16.60;99.90
24232;DHT22;12364;47.810;8.810;2022-10-16T05:22:19;16.60;99.90
24232;DHT22;12364;47.810;8.810;2022-10-16T05:24:47;16.60;99.90
24232;DHT22;12364;47.810;8.810;2022-10-16T05:27:14;16.60;99.90
24232;DHT22;12364;47.810;8.810;2022-10-16T05:29:46;16.50;99.90
24232;DHT22;12364;47.810;8.810;2022-10-16T05:32:14;16.50;99.90
24232;DHT22;12364;47.810;8.810;2022-10-16T05:34:41;16.50;99.90
24232;DHT22;12364;47.810;8.810;2022-10-16T05:37:08;16.40;99.90
24232;DHT22;12364;47.810;8.810;2022-10-16T05:39:35;16.40;99.90
24232;DHT22;12364;47.810;8.810;2022-10-16T05:42:04;16.40;99.90
24232;DHT22;12364;47.810;8.810;2022-10-16T05:44:31;16.40;99.90
24232;DHT22;12364;47.810;8.810;2022-10-16T05:47:01;16.40;99.90
24232;DHT22;12364;47.810;8.810;2022-10-16T05:49:28;16.40;99.90
24232;DHT22;12364;47.810;8.810;2022-10-16T05:51:55;16.40;99.90
24232;DHT22;12364;47.810;8.810;2022-10-16T05:54:22;16.40;99.90
24232;DHT22;12364;47.810;8.810;2022-10-16T05:56:48;16.40;99.90
24232;DHT22;12364;47.810;8.810;2022-10-16T05:59:15;16.40;99.90
24232;DHT22;12364;47.810;8.810;2022-10-16T06:01:42;16.40;99.90
24232;DHT22;12364;47.810;8.810;2022-10-16T06:04:10;16.40;99.90
24232;DHT22;12364;47.810;8.810;2022-10-16T06:06:41;16.50;99.90
24232;DHT22;12364;47.810;8.810;2022-10-16T06:09:08;16.50;99.90
24232;DHT22;12364;47.810;8.810;2022-10-16T06:11:36;16.50;99.90
24232;DHT22;12364;47.810;8.810;2022-10-16T06:14:03;16.60;99.90
24232;DHT22;12364;47.810;8.810;2022-10-16T06:16:34;16.60;99.90
24232;DHT22;12364;47.810;8.810;2022-10-16T06:19:02;16.50;99.90
24232;DHT22;12364;47.810;8.810;2022-10-16T06:21:31;16.50;99.90
24232;DHT22;12364;47.810;8.810;2022-10-16T06:23:58;16.50;99.90
24232;DHT22;12364;47.810;8.810;2022-10-16T06:26:26;16.50;99.90
24232;DHT22;12364;47.810;8.810;2022-10-16T06:28:54;16.50;99.90
24232;DHT22;12364;47.810;8.810;2022-10-16T06:31:22;16.50;99.90
24232;DHT22;12364;47.810;8.810;2022-10-16T06:33:52;16.60;99.90
24232;DHT22;12364;47.810;8.810;2022-10-16T06:36:19;16.50;99.90
24232;DHT22;12364;47.810;8.810;2022-10-16T06:38:46;16.50;99.90
24232;DHT22;12364;47.810;8.810;2022-10-16T06:41:17;16.50;99.90
24232;DHT22;12364;47.810;8.810;2022-10-16T06:43:44;16.40;99.90
24232;DHT22;12364;47.810;8.810;2022-10-16T06:46:12;16.40;99.90
24232;DHT22;12364;47.810;8.810;2022-10-16T06:48:40;16.50;99.90
24232;DHT22;12364;47.810;8.810;2022-10-16T06:51:13;16.40;99.90
24232;DHT22;12364;47.810;8.810;2022-10-16T06:53:42;16.40;99.90
24232;DHT22;12364;47.810;8.810;2022-10-16T06:56:29;16.40;99.90
24232;DHT22;12364;47.810;8.810;2022-10-16T06:58:58;16.50;99.90
24232;DHT22;12364;47.810;8.810;2022-10-16T07:01:25;16.50;99.90
24232;DHT22;12364;47.810;8.810;2022-10-16T07:03:52;16.60;99.90
24232;DHT22;12364;47.810;8.810;2022-10-16T07:06:20;16.60;99.90
24232;DHT22;12364;47.810;8.810;2022-10-16T07:08:47;16.60;99.90
24232;DHT22;12364;47.810;8.810;2022-10-16T07:11:16;16.70;99.90
24232;DHT22;12364;47.810;8.810;2022-10-16T07:13:43;16.70;99.90
24232;DHT22;12364;47.810;8.810;2022-10-16T07:16:19;16.70;99.90
24232;DHT22;12364;47.810;8.810;2022-10-16T07:18:47;16.70;99.90
24232;DHT22;12364;47.810;8.810;2022-10-16T07:21:16;16.80;99.90
24232;DHT22;12364;47.810;8.810;2022-10-16T07:23:44;16.80;99.90
24232;DHT22;12364;47.810;8.810;2022-10-16T07:26:11;16.90;99.90
24232;DHT22;12364;47.810;8.810;2022-10-16T07:28:38;16.90;99.90
24232;DHT22;12364;47.810;8.810;2022-10-16T07:31:07;16.90;99.90
24232;DHT22;12364;47.810;8.810;2022-10-16T07:33:34;17.00;99.90
24232;DHT22;12364;47.810;8.810;2022-10-16T07:36:01;17.10;99.90
24232;DHT22;12364;47.810;8.810;2022-10-16T07:38:28;17.10;99.90
24232;DHT22;12364;47.810;8.810;2022-10-16T07:40:56;17.10;99.90
24232;DHT22;12364;47.810;8.810;2022-10-16T07:43:24;17.20;99.90
24232;DHT22;12364;47.810;8.810;2022-10-16T07:45:51;17.20;99.90
24232;DHT22;12364;47.810;8.810;2022-10-16T07:48:23;17.20;99.90
24232;DHT22;12364;47.810;8.810;2022-10-16T07:50:51;17.20;99.90
24232;DHT22;12364;47.810;8.810;2022-10-16T07:53:18;17.30;99.90
24232;DHT22;12364;47.810;8.810;2022-10-16T07:55:49;17.30;99.90
24232;DHT22;12364;47.810;8.810;2022-10-16T07:58:16;17.30;99.90
24232;DHT22;12364;47.810;8.810;2022-10-16T08:00:43;17.40;99.90
24232;DHT22;12364;47.810;8.810;2022-10-16T08:03:10;17.40;99.90
24232;DHT22;12364;47.810;8.810;2022-10-16T08:05:37;17.50;99.90
24232;DHT22;12364;47.810;8.810;2022-10-16T08:08:03;17.50;99.90
24232;DHT22;12364;47.810;8.810;2022-10-16T08:10:30;17.50;99.90
24232;DHT22;12364;47.810;8.810;2022-10-16T08:12:58;17.50;99.90
24232;DHT22;12364;47.810;8.810;2022-10-16T08:15:25;17.60;99.90
24232;DHT22;12364;47.810;8.810;2022-10-16T08:17:59;17.60;99.90
24232;DHT22;12364;47.810;8.810;2022-10-16T08:20:27;17.70;99.90
24232;DHT22;12364;47.810;8.810;2022-10-16T08:22:55;17.80;99.90
24232;DHT22;12364;47.810;8.810;2022-10-16T08:25:23;17.80;99.90
24232;DHT22;12364;47.810;8.810;2022-10-16T08:27:50;17.90;99.90
24232;DHT22;12364;47.810;8.810;2022-10-16T08:30:18;17.90;99.90
24232;DHT22;12364;47.810;8.810;2022-10-16T08:32:45;17.90;99.90
24232;DHT22;12364;47.810;8.810;2022-10-16T08:35:12;17.90;99.90
24232;DHT22;12364;47.810;8.810;2022-10-16T08:37:39;18.00;99.90
24232;DHT22;12364;47.810;8.810;2022-10-16T08:40:07;18.00;99.90
24232;DHT22;12364;47.810;8.810;2022-10-16T08:50:32;18.20;99.90
24232;DHT22;12364;47.810;8.810;2022-10-16T08:52:59;18.20;99.90
24232;DHT22;12364;47.810;8.810;2022-10-16T08:57:59;18.30;99.90
24232;DHT22;12364;47.810;8.810;2022-10-16T09:00:26;18.30;99.90
24232;DHT22;12364;47.810;8.810;2022-10-16T09:08:19;18.40;99.90
24232;DHT22;12364;47.810;8.810;2022-10-16T09:15:54;18.60;99.90
24232;DHT22;12364;47.810;8.810;2022-10-16T09:18:27;18.60;99.90
24232;DHT22;12364;47.810;8.810;2022-10-16T09:23:26;18.70;99.90
24232;DHT22;12364;47.810;8.810;2022-10-16T09:25:54;18.70;99.90
24232;DHT22;12364;47.810;8.810;2022-10-16T09:28:22;18.70;99.90
24232;DHT22;12364;47.810;8.810;2022-10-16T09:30:49;18.80;99.90
24232;DHT22;12364;47.810;8.810;2022-10-16T09:33:17;18.90;99.90
24232;DHT22;12364;47.810;8.810;2022-10-16T09:35:46;18.90;99.90
24232;DHT22;12364;47.810;8.810;2022-10-16T09:40:52;19.00;99.90
24232;DHT22;12364;47.810;8.810;2022-10-16T09:43:36;19.10;99.90
24232;DHT22;12364;47.810;8.810;2022-10-16T09:46:48;19.10;99.90
24232;DHT22;12364;47.810;8.810;2022-10-16T09:49:02;19.20;99.90
24232;DHT22;12364;47.810;8.810;2022-10-16T09:54:00;19.30;99.90
24232;DHT22;12364;47.810;8.810;2022-10-16T09:56:31;19.40;99.90
24232;DHT22;12364;47.810;8.810;2022-10-16T09:59:18;19.50;99.90
24232;DHT22;12364;47.810;8.810;2022-10-16T10:01:46;19.60;99.90
24232;DHT22;12364;47.810;8.810;2022-10-16T10:04:14;19.60;99.90
24232;DHT22;12364;47.810;8.810;2022-10-16T10:06:45;19.70;99.90
24232;DHT22;12364;47.810;8.810;2022-10-16T10:11:49;19.80;99.90
24232;DHT22;12364;47.810;8.810;2022-10-16T10:14:18;19.90;99.90
24232;DHT22;12364;47.810;8.810;2022-10-16T10:16:46;19.90;99.90
24232;DHT22;12364;47.810;8.810;2022-10-16T10:19:57;20.00;99.90
24232;DHT22;12364;47.810;8.810;2022-10-16T10:22:15;20.00;99.90
24232;DHT22;12364;47.810;8.810;2022-10-16T10:24:44;20.10;99.90
24232;DHT22;12364;47.810;8.810;2022-10-16T10:27:13;20.10;99.90
24232;DHT22;12364;47.810;8.810;2022-10-16T10:30:02;20.10;99.90
24232;DHT22;12364;47.810;8.810;2022-10-16T10:35:03;20.20;99.90
24232;DHT22;12364;47.810;8.810;2022-10-16T10:37:40;20.30;99.90
24232;DHT22;12364;47.810;8.810;2022-10-16T10:40:32;20.30;99.90
24232;DHT22;12364;47.810;8.810;2022-10-16T10:43:06;20.40;99.90
24232;DHT22;12364;47.810;8.810;2022-10-16T10:45:44;20.40;99.90
24232;DHT22;12364;47.810;8.810;2022-10-16T10:50:52;20.50;99.90
24232;DHT22;12364;47.810;8.810;2022-10-16T10:53:44;20.50;99.90
24232;DHT22;12364;47.810;8.810;2022-10-16T10:59:02;20.60;99.90
24232;DHT22;12364;47.810;8.810;2022-10-16T11:06:55;20.80;99.90
24232;DHT22;12364;47.810;8.810;2022-10-16T11:12:01;20.90;99.90
24232;DHT22;12364;47.810;8.810;2022-10-16T11:14:38;20.90;99.90
24232;DHT22;12364;47.810;8.810;2022-10-16T11:17:25;20.90;99.90
24232;DHT22;12364;47.810;8.810;2022-10-16T11:20:39;21.00;99.90
24232;DHT22;12364;47.810;8.810;2022-10-16T11:22:50;21.00;99.90
24232;DHT22;12364;47.810;8.810;2022-10-16T11:25:28;21.10;99.90
24232;DHT22;12364;47.810;8.810;2022-10-16T11:30:27;21.10;99.90
24232;DHT22;12364;47.810;8.810;2022-10-16T11:38:10;21.20;99.90
24232;DHT22;12364;47.810;8.810;2022-10-16T11:40:39;21.30;99.90
24232;DHT22;12364;47.810;8.810;2022-10-16T11:43:16;21.30;99.90
24232;DHT22;12364;47.810;8.810;2022-10-16T11:45:49;21.30;99.90
24232;DHT22;12364;47.810;8.810;2022-10-16T11:50:53;21.30;99.90
24232;DHT22;12364;47.810;8.810;2022-10-16T11:55:51;21.40;99.90
24232;DHT22;12364;47.810;8.810;2022-10-16T11:58:36;21.30;99.90
24232;DHT22;12364;47.810;8.810;2022-10-16T12:03:39;21.40;99.90
24232;DHT22;12364;47.810;8.810;2022-10-16T12:06:22;21.40;99.90
24232;DHT22;12364;47.810;8.810;2022-10-16T12:08:52;21.50;99.90
24232;DHT22;12364;47.810;8.810;2022-10-16T12:16:36;21.70;99.90
24232;DHT22;12364;47.810;8.810;2022-10-16T12:19:11;21.70;99.90
24232;DHT22;12364;47.810;8.810;2022-10-16T12:21:38;21.80;99.90
24232;DHT22;12364;47.810;8.810;2022-10-16T12:24:05;21.80;99.90
24232;DHT22;12364;47.810;8.810;2022-10-16T12:26:33;21.80;99.90
24232;DHT22;12364;47.810;8.810;2022-10-16T12:29:13;21.80;99.90
24232;DHT22;12364;47.810;8.810;2022-10-16T12:31:45;21.80;99.90
24232;DHT22;12364;47.810;8.810;2022-10-16T12:34:27;21.90;99.90
24232;DHT22;12364;47.810;8.810;2022-10-16T12:36:55;21.90;99.90
24232;DHT22;12364;47.810;8.810;2022-10-16T12:39:24;22.00;99.90
24232;DHT22;12364;47.810;8.810;2022-10-16T12:42:01;22.00;99.90
24232;DHT22;12364;47.810;8.810;2022-10-16T12:44:32;22.00;99.90
24232;DHT22;12364;47.810;8.810;2022-10-16T12:46:59;22.10;99.90
24232;DHT22;12364;47.810;8.810;2022-10-16T12:49:30;22.10;99.90
24232;DHT22;12364;47.810;8.810;2022-10-16T12:51:58;22.10;99.90
24232;DHT22;12364;47.810;8.810;2022-10-16T12:54:29;22.10;99.90
24232;DHT22;12364;47.810;8.810;2022-10-16T13:00:28;22.10;99.90
24232;DHT22;12364;47.810;8.810;2022-10-16T13:02:44;22.20;99.90
24232;DHT22;12364;47.810;8.810;2022-10-16T13:13:35;22.30;99.90
24232;DHT22;12364;47.810;8.810;2022-10-16T13:16:09;22.30;99.90
24232;DHT22;12364;47.810;8.810;2022-10-16T13:18:48;22.30;99.90
24232;DHT22;12364;47.810;8.810;2022-10-16T13:29:10;22.50;99.90
24232;DHT22;12364;47.810;8.810;2022-10-16T13:31:38;22.40;99.90
24232;DHT22;12364;47.810;8.810;2022-10-16T13:34:06;22.50;99.90
24232;DHT22;12364;47.810;8.810;2022-10-16T13:36:55;22.50;99.90
24232;DHT22;12364;47.810;8.810;2022-10-16T13:39:24;22.50;99.90
24232;DHT22;12364;47.810;8.810;2022-10-16T13:44:30;22.50;99.90
24232;DHT22;12364;47.810;8.810;2022-10-16T13:46:58;22.50;99.90
24232;DHT22;12364;47.810;8.810;2022-10-16T13:49:25;22.60;99.90
24232;DHT22;12364;47.810;8.810;2022-10-16T13:51:56;22.60;99.90
24232;DHT22;12364;47.810;8.810;2022-10-16T13:54:24;22.60;99.90
24232;DHT22;12364;47.810;8.810;2022-10-16T13:56:51;22.70;99.90
24232;DHT22;12364;47.810;8.810;2022-10-16T13:59:35;22.70;99.90
24232;DHT22;12364;47.810;8.810;2022-10-16T14:02:05;22.70;99.90
24232;DHT22;12364;47.810;8.810;2022-10-16T14:04:37;22.70;99.90
24232;DHT22;12364;47.810;8.810;2022-10-16T14:07:05;22.80;99.90
24232;DHT22;12364;47.810;8.810;2022-10-16T14:09:32;22.70;99.90
24232;DHT22;12364;47.810;8.810;2022-10-16T14:12:00;22.80;99.90
24232;DHT22;12364;47.810;8.810;2022-10-16T14:14:31;22.70;99.90
24232;DHT22;12364;47.810;8.810;2022-10-16T14:17:00;22.80;99.90
24232;DHT22;12364;47.810;8.810;2022-10-16T14:19:29;22.70;99.90
24232;DHT22;12364;47.810;8.810;2022-10-16T14:21:56;22.80;99.90
24232;DHT22;12364;47.810;8.810;2022-10-16T14:26:52;22.80;99.90
24232;DHT22;12364;47.810;8.810;2022-10-16T14:29:21;22.80;99.90
24232;DHT22;12364;47.810;8.810;2022-10-16T14:31:54;22.80;99.90
24232;DHT22;12364;47.810;8.810;2022-10-16T14:36:54;22.80;99.90
24232;DHT22;12364;47.810;8.810;2022-10-16T14:39:22;22.80;99.90
24232;DHT22;12364;47.810;8.810;2022-10-16T14:41:54;22.80;99.90
24232;DHT22;12364;47.810;8.810;2022-10-16T14:44:22;22.80;99.90
24232;DHT22;12364;47.810;8.810;2022-10-16T14:46:52;22.80;99.90
24232;DHT22;12364;47.810;8.810;2022-10-16T14:49:19;22.80;99.90
24232;DHT22;12364;47.810;8.810;2022-10-16T14:51:47;22.80;99.90
24232;DHT22;12364;47.810;8.810;2022-10-16T14:54:15;22.80;99.90
24232;DHT22;12364;47.810;8.810;2022-10-16T14:59:14;22.80;99.90
24232;DHT22;12364;47.810;8.810;2022-10-16T15:01:43;22.80;99.90
24232;DHT22;12364;47.810;8.810;2022-10-16T15:04:10;22.80;99.90
24232;DHT22;12364;47.810;8.810;2022-10-16T15:06:38;22.80;99.90
24232;DHT22;12364;47.810;8.810;2022-10-16T15:09:05;22.80;99.90
24232;DHT22;12364;47.810;8.810;2022-10-16T15:11:32;22.80;99.90
24232;DHT22;12364;47.810;8.810;2022-10-16T15:13:59;22.80;99.90
24232;DHT22;12364;47.810;8.810;2022-10-16T15:16:26;22.80;99.90
24232;DHT22;12364;47.810;8.810;2022-10-16T15:18:53;22.80;99.90
24232;DHT22;12364;47.810;8.810;2022-10-16T15:21:27;22.90;99.90
24232;DHT22;12364;47.810;8.810;2022-10-16T15:23:55;22.90;99.90
24232;DHT22;12364;47.810;8.810;2022-10-16T15:26:26;22.90;99.90
24232;DHT22;12364;47.810;8.810;2022-10-16T15:28:53;22.90;99.90
24232;DHT22;12364;47.810;8.810;2022-10-16T15:31:21;22.80;99.90
24232;DHT22;12364;47.810;8.810;2022-10-16T15:33:49;22.80;99.90
24232;DHT22;12364;47.810;8.810;2022-10-16T15:36:26;22.80;99.90
24232;DHT22;12364;47.810;8.810;2022-10-16T15:38:53;22.70;99.90
24232;DHT22;12364;47.810;8.810;2022-10-16T15:41:20;22.70;99.90
24232;DHT22;12364;47.810;8.810;2022-10-16T15:43:48;22.70;99.90
24232;DHT22;12364;47.810;8.810;2022-10-16T15:46:17;22.60;99.90
24232;DHT22;12364;47.810;8.810;2022-10-16T15:48:44;22.60;99.90
24232;DHT22;12364;47.810;8.810;2022-10-16T15:51:11;22.50;99.90
24232;DHT22;12364;47.810;8.810;2022-10-16T15:53:38;22.40;99.90
24232;DHT22;12364;47.810;8.810;2022-10-16T15:56:06;22.40;99.90
24232;DHT22;12364;47.810;8.810;2022-10-16T15:58:34;22.40;99.90
24232;DHT22;12364;47.810;8.810;2022-10-16T16:01:01;22.40;99.90
24232;DHT22;12364;47.810;8.810;2022-10-16T16:03:28;22.40;99.90
24232;DHT22;12364;47.810;8.810;2022-10-16T16:05:55;22.30;99.90
24232;DHT22;12364;47.810;8.810;2022-10-16T16:08:22;22.30;99.90
24232;DHT22;12364;47.810;8.810;2022-10-16T16:10:59;22.20;99.90
24232;DHT22;12364;47.810;8.810;2022-10-16T16:13:26;22.20;99.90
24232;DHT22;12364;47.810;8.810;2022-10-16T16:15:53;22.10;99.90
24232;DHT22;12364;47.810;8.810;2022-10-16T16:18:20;22.10;99.90
24232;DHT22;12364;47.810;8.810;2022-10-16T16:20:47;22.10;99.90
24232;DHT22;12364;47.810;8.810;2022-10-16T16:23:15;22.00;99.90
24232;DHT22;12364;47.810;8.810;2022-10-16T16:25:42;22.00;99.90
24232;DHT22;12364;47.810;8.810;2022-10-16T16:28:09;21.90;99.90
24232;DHT22;12364;47.810;8.810;2022-10-16T16:30:37;21.90;99.90
24232;DHT22;12364;47.810;8.810;2022-10-16T16:33:04;21.90;99.90
24232;DHT22;12364;47.810;8.810;2022-10-16T16:35:31;21.80;99.90
24232;DHT22;12364;47.810;8.810;2022-10-16T16:37:58;21.80;99.90
24232;DHT22;12364;47.810;8.810;2022-10-16T16:40:25;21.70;99.90
24232;DHT22;12364;47.810;8.810;2022-10-16T16:42:53;21.70;99.90
24232;DHT22;12364;47.810;8.810;2022-10-16T16:45:20;21.60;99.90
24232;DHT22;12364;47.810;8.810;2022-10-16T16:47:47;21.60;99.90
24232;DHT22;12364;47.810;8.810;2022-10-16T16:50:14;21.60;99.90
24232;DHT22;12364;47.810;8.810;2022-10-16T16:52:41;21.50;99.90
24232;DHT22;12364;47.810;8.810;2022-10-16T16:55:08;21.40;99.90
24232;DHT22;12364;47.810;8.810;2022-10-16T16:57:35;21.40;99.90
24232;DHT22;12364;47.810;8.810;2022-10-16T17:00:03;21.30;99.90
24232;DHT22;12364;47.810;8.810;2022-10-16T17:02:30;21.30;99.90
24232;DHT22;12364;47.810;8.810;2022-10-16T17:04:57;21.30;99.90
24232;DHT22;12364;47.810;8.810;2022-10-16T17:07:24;21.20;99.90
24232;DHT22;12364;47.810;8.810;2022-10-16T17:09:52;21.10;99.90
24232;DHT22;12364;47.810;8.810;2022-10-16T17:12:19;21.10;99.90
24232;DHT22;12364;47.810;8.810;2022-10-16T17:14:46;21.10;99.90
24232;DHT22;12364;47.810;8.810;2022-10-16T17:17:13;21.10;99.90
24232;DHT22;12364;47.810;8.810;2022-10-16T17:19:40;21.10;99.90
24232;DHT22;12364;47.810;8.810;2022-10-16T17:22:07;21.00;99.90
24232;DHT22;12364;47.810;8.810;2022-10-16T17:24:34;21.00;99.90
24232;DHT22;12364;47.810;8.810;2022-10-16T17:27:01;20.90;99.90
24232;DHT22;12364;47.810;8.810;2022-10-16T17:29:28;20.90;99.90
24232;DHT22;12364;47.810;8.810;2022-10-16T17:31:55;20.80;99.90
24232;DHT22;12364;47.810;8.810;2022-10-16T17:34:22;20.80;99.90
24232;DHT22;12364;47.810;8.810;2022-10-16T17:36:49;20.70;99.90
24232;DHT22;12364;47.810;8.810;2022-10-16T17:39:16;20.70;99.90
24232;DHT22;12364;47.810;8.810;2022-10-16T17:41:44;20.70;99.90
24232;DHT22;12364;47.810;8.810;2022-10-16T17:44:12;20.60;99.90
24232;DHT22;12364;47.810;8.810;2022-10-16T17:46:46;20.50;99.90
24232;DHT22;12364;47.810;8.810;2022-10-16T17:49:13;20.50;99.90
24232;DHT22;12364;47.810;8.810;2022-10-16T17:51:40;20.40;99.90
24232;DHT22;12364;47.810;8.810;2022-10-16T17:54:07;20.40;99.90
24232;DHT22;12364;47.810;8.810;2022-10-16T17:56:35;20.40;99.90
24232;DHT22;12364;47.810;8.810;2022-10-16T17:59:02;20.30;99.90
24232;DHT22;12364;47.810;8.810;2022-10-16T18:01:30;20.20;99.90
24232;DHT22;12364;47.810;8.810;2022-10-16T18:03:59;20.20;99.90
24232;DHT22;12364;47.810;8.810;2022-10-16T18:06:27;20.20;99.90
24232;DHT22;12364;47.810;8.810;2022-10-16T18:08:55;20.10;99.90
24232;DHT22;12364;47.810;8.810;2022-10-16T18:11:22;20.10;99.90
24232;DHT22;12364;47.810;8.810;2022-10-16T18:13:53;20.00;99.90
24232;DHT22;12364;47.810;8.810;2022-10-16T18:16:21;19.90;99.90
24232;DHT22;12364;47.810;8.810;2022-10-16T18:18:48;19.80;99.90
24232;DHT22;12364;47.810;8.810;2022-10-16T18:21:17;19.80;99.90
24232;DHT22;12364;47.810;8.810;2022-10-16T18:23:45;19.80;99.90
24232;DHT22;12364;47.810;8.810;2022-10-16T18:26:18;19.90;99.90
24232;DHT22;12364;47.810;8.810;2022-10-16T18:28:46;19.80;99.90
24232;DHT22;12364;47.810;8.810;2022-10-16T18:31:14;19.90;99.90
24232;DHT22;12364;47.810;8.810;2022-10-16T18:33:42;19.90;99.90
24232;DHT22;12364;47.810;8.810;2022-10-16T18:36:20;19.80;99.90
24232;DHT22;12364;47.810;8.810;2022-10-16T18:38:48;19.80;99.90
24232;DHT22;12364;47.810;8.810;2022-10-16T18:41:15;19.70;99.90
24232;DHT22;12364;47.810;8.810;2022-10-16T18:43:42;19.80;99.90
24232;DHT22;12364;47.810;8.810;2022-10-16T18:46:10;19.70;99.90
24232;DHT22;12364;47.810;8.810;2022-10-16T18:48:37;19.70;99.90
24232;DHT22;12364;47.810;8.810;2022-10-16T18:51:26;19.70;99.90
24232;DHT22;12364;47.810;8.810;2022-10-16T18:53:53;19.60;99.90
24232;DHT22;12364;47.810;8.810;2022-10-16T18:56:20;19.60;99.90
24232;DHT22;12364;47.810;8.810;2022-10-16T18:58:49;19.60;99.90
24232;DHT22;12364;47.810;8.810;2022-10-16T19:01:18;19.60;99.90
24232;DHT22;12364;47.810;8.810;2022-10-16T19:03:51;19.50;99.90
24232;DHT22;12364;47.810;8.810;2022-10-16T19:06:18;19.50;99.90
24232;DHT22;12364;47.810;8.810;2022-10-16T19:08:45;19.50;99.90
24232;DHT22;12364;47.810;8.810;2022-10-16T19:11:14;19.40;99.90
24232;DHT22;12364;47.810;8.810;2022-10-16T19:13:41;19.50;99.90
24232;DHT22;12364;47.810;8.810;2022-10-16T19:16:09;19.40;99.90
24232;DHT22;12364;47.810;8.810;2022-10-16T19:18:46;19.40;99.90
24232;DHT22;12364;47.810;8.810;2022-10-16T19:21:14;19.40;99.90
24232;DHT22;12364;47.810;8.810;2022-10-16T19:23:41;19.40;99.90
24232;DHT22;12364;47.810;8.810;2022-10-16T19:26:10;19.30;99.90
24232;DHT22;12364;47.810;8.810;2022-10-16T19:28:37;19.30;99.90
24232;DHT22;12364;47.810;8.810;2022-10-16T19:31:05;19.20;99.90
24232;DHT22;12364;47.810;8.810;2022-10-16T19:33:33;19.10;99.90
24232;DHT22;12364;47.810;8.810;2022-10-16T19:36:10;19.10;99.90
24232;DHT22;12364;47.810;8.810;2022-10-16T19:38:38;19.10;99.90
24232;DHT22;12364;47.810;8.810;2022-10-16T19:41:06;19.10;99.90
24232;DHT22;12364;47.810;8.810;2022-10-16T19:43:33;19.20;99.90
24232;DHT22;12364;47.810;8.810;2022-10-16T19:46:07;19.10;99.90
24232;DHT22;12364;47.810;8.810;2022-10-16T19:48:35;19.10;99.90
24232;DHT22;12364;47.810;8.810;2022-10-16T19:51:02;19.10;99.90
24232;DHT22;12364;47.810;8.810;2022-10-16T19:53:29;19.00;99.90
24232;DHT22;12364;47.810;8.810;2022-10-16T19:55:56;19.00;99.90
24232;DHT22;12364;47.810;8.810;2022-10-16T19:58:24;19.00;99.90
24232;DHT22;12364;47.810;8.810;2022-10-16T20:00:51;19.00;99.90
24232;DHT22;12364;47.810;8.810;2022-10-16T20:03:20;19.00;99.90
24232;DHT22;12364;47.810;8.810;2022-10-16T20:05:51;19.00;99.90
24232;DHT22;12364;47.810;8.810;2022-10-16T20:08:18;19.00;99.90
24232;DHT22;12364;47.810;8.810;2022-10-16T20:10:49;19.00;99.90
24232;DHT22;12364;47.810;8.810;2022-10-16T20:13:16;18.90;99.90
24232;DHT22;12364;47.810;8.810;2022-10-16T20:15:44;18.90;99.90
24232;DHT22;12364;47.810;8.810;2022-10-16T20:18:11;18.90;99.90
24232;DHT22;12364;47.810;8.810;2022-10-16T20:20:39;18.90;99.90
24232;DHT22;12364;47.810;8.810;2022-10-16T20:23:06;18.90;99.90
24232;DHT22;12364;47.810;8.810;2022-10-16T20:25:36;18.80;99.90
24232;DHT22;12364;47.810;8.810;2022-10-16T20:28:04;18.80;99.90
24232;DHT22;12364;47.810;8.810;2022-10-16T20:30:34;18.70;99.90
24232;DHT22;12364;47.810;8.810;2022-10-16T20:33:02;18.70;99.90
24232;DHT22;12364;47.810;8.810;2022-10-16T20:35:33;18.70;99.90
24232;DHT22;12364;47.810;8.810;2022-10-16T20:38:00;18.70;99.90
24232;DHT22;12364;47.810;8.810;2022-10-16T20:40:27;18.70;99.90
24232;DHT22;12364;47.810;8.810;2022-10-16T20:42:54;18.70;99.90
24232;DHT22;12364;47.810;8.810;2022-10-16T20:45:21;18.70;99.90
24232;DHT22;12364;47.810;8.810;2022-10-16T20:47:48;18.70;99.90
24232;DHT22;12364;47.810;8.810;2022-10-16T20:50:15;18.70;99.90
24232;DHT22;12364;47.810;8.810;2022-10-16T20:52:43;18.70;99.90
24232;DHT22;12364;47.810;8.810;2022-10-16T20:55:10;18.60;99.90
24232;DHT22;12364;47.810;8.810;2022-10-16T20:57:37;18.60;99.90
24232;DHT22;12364;47.810;8.810;2022-10-16T21:00:04;18.60;99.90
24232;DHT22;12364;47.810;8.810;2022-10-16T21:02:32;18.60;99.90
24232;DHT22;12364;47.810;8.810;2022-10-16T21:04:58;18.60;99.90
24232;DHT22;12364;47.810;8.810;2022-10-16T21:07:26;18.50;99.90
24232;DHT22;12364;47.810;8.810;2022-10-16T21:09:54;18.50;99.90
24232;DHT22;12364;47.810;8.810;2022-10-16T21:12:22;18.40;99.90
24232;DHT22;12364;47.810;8.810;2022-10-16T21:14:50;18.40;99.90
24232;DHT22;12364;47.810;8.810;2022-10-16T21:17:37;18.30;99.90
24232;DHT22;12364;47.810;8.810;2022-10-16T21:20:04;18.20;99.90
24232;DHT22;12364;47.810;8.810;2022-10-16T21:22:31;18.20;99.90
24232;DHT22;12364;47.810;8.810;2022-10-16T21:24:58;18.20;99.90
24232;DHT22;12364;47.810;8.810;2022-10-16T21:27:25;18.20;99.90
24232;DHT22;12364;47.810;8.810;2022-10-16T21:29:52;18.10;99.90
24232;DHT22;12364;47.810;8.810;2022-10-16T21:32:20;18.10;99.90
24232;DHT22;12364;47.810;8.810;2022-10-16T21:34:47;18.00;99.90
24232;DHT22;12364;47.810;8.810;2022-10-16T21:37:14;18.00;99.90
24232;DHT22;12364;47.810;8.810;2022-10-16T21:39:41;17.90;99.90
24232;DHT22;12364;47.810;8.810;2022-10-16T21:42:07;17.90;99.90
24232;DHT22;12364;47.810;8.810;2022-10-16T21:44:34;17.80;99.90
24232;DHT22;12364;47.810;8.810;2022-10-16T21:47:01;17.80;99.90
24232;DHT22;12364;47.810;8.810;2022-10-16T21:49:28;17.80;99.90